Bay Area Logo

Alameda, CA Condo Real Estate Listings

33 Total Real Estate Listings * Click on table heading to sort
Date Posted Property Type Style Address Price Living Area Lot Size Price/Sq Ft.
2019-02-18 Condo Contemporary 1333 Webster Street Alameda, CA 94501 $375,000 510 sq. ft. 50,965 sq. ft. $735
2019-02-15 Condo Contemporary 493 Mitchell Ave Alameda, CA 94501 $1,080,000 2,303 sq. ft. $469
2019-02-15 Condo Contemporary 493 Mitchell Avenue Alameda, CA 94501 $1,080,000 2,303 sq. ft. 10,019 sq. ft. $469
2019-02-14 Condo Contemporary 610 Lagunaria Ln Alameda, CA 94502 $899,000 2,018 sq. ft. 2,178 sq. ft. $445
2019-02-14 Condo Contemporary 2101 Shoreline Dr Alameda, CA 94501 $675,000 1,245 sq. ft. 247,421 sq. ft. $542
2019-02-12 Condo Contemporary 3340 Solomon Ln Alameda, CA 94502 $789,000 1,730 sq. ft. 1,742 sq. ft. $456
2019-02-09 Condo Mid Century Modern 2137 Otis Dr Alameda, CA 94501 $628,000 1,266 sq. ft. 73,181 sq. ft. $496
2019-02-08 Condo Mid Century Modern 2137 Otis Dr Alameda, CA 94501 $579,000 1,090 sq. ft. 73,181 sq. ft. $531
2019-02-08 Condo Brown Shingle; Contemporary 663 Centre Ct Alameda, CA 94502 $788,000 1,664 sq. ft. 29,621 sq. ft. $474
2019-01-31 Condo Contemporary 2055 Whitehall Pl Alameda, CA 94501 $749,000 1,550 sq. ft. 36,590 sq. ft. $483
2019-01-28 Condo Contemporary 1151 Admiralty Alameda, CA 94502 $669,000 1,274 sq. ft. 2,178 sq. ft. $525
2019-01-25 Condo Contemporary 491 Diller Street Alameda, CA 94501 $1,062,000 2,303 sq. ft. $461
2019-01-25 Condo Contemporary 1001 Shoreline Dr Alameda, CA 94501 $639,000 1,360 sq. ft. 39,204 sq. ft. $470
2019-01-25 Condo Contemporary 2515 Central Ave Alameda, CA 94501 $670,000 1,228 sq. ft. 15,682 sq. ft. $546
2019-01-25 Condo Contemporary 401 Ironwood Rd Alameda, CA 94502 $750,000 1,534 sq. ft. 2,178 sq. ft. $489
2019-01-25 Condo 950 Shorepoint Court Alameda, CA 94501 $588,000 1,092 sq. ft. 133,729 sq. ft. $538
2019-01-25 Condo Contemporary 325 Kitty Hawk Road Alameda, CA 94501 $449,000 771 sq. ft. 43,560 sq. ft. $582
2019-01-25 Condo Contemporary 950 Shorepoint Ct Alameda, CA 94501 $588,000 1,092 sq. ft. 133,729 sq. ft. $538
2019-01-25 Condo Contemporary 1333 Webster St Alameda, CA 94501 $479,000 843 sq. ft. 50,965 sq. ft. $568
2019-01-24 Condo Contemporary 2733 5th St Alameda, CA 94501 $850,000 1,638 sq. ft. $519
2019-01-24 Condo Contemporary 420 Cola Ballena Alameda, CA 94501 $888,000 2,139 sq. ft. 100,188 sq. ft. $415
2018-11-09 Condo Contemporary 2101 Shoreline Dr Alameda, CA 94501 $650,000 1,015 sq. ft. 247,421 sq. ft. $640
2018-11-08 Condo Contemporary 325 Kitty Hawk Rd #105 Alameda, CA 94501 $525,000 854 sq. ft. 43,560 sq. ft. $615
2018-11-02 Condo Contemporary 2737 5th St Alameda, CA 94501 $899,000 1,987 sq. ft. $452
2018-11-01 Condo Contemporary 501 Tideway Drive Alameda, CA 94501 $1,595,000 3,034 sq. ft. 2,178 sq. ft. $526
2018-10-27 Condo Brown Shingle 2702 Sea View Pkwy Alameda, CA 94502 $1,199,000 2,424 sq. ft. $495
2018-09-20 Condo 325 Kitty Hawk Rd Alameda, CA 94501 $455,000 771 sq. ft. 43,560 sq. ft. $590
2018-09-15 Condo Contemporary 1027 Tahiti Alameda, CA 04502 $695,000 1,261 sq. ft. 1,742 sq. ft. $551
2017-06-01 Condo Contemporary 472 Diller Alameda, CA 94501 $962,486 2,072 sq. ft. $465
2017-06-01 Condo Contemporary 466 Diller Alameda, CA 94501 $964,933 2,072 sq. ft. $466
2016-11-18 Condo Contemporary 478 Diller Alameda, CA 94501 $975,000 1,763 sq. ft. $553
2016-11-01 Condo Contemporary 498 Diller Alameda, CA 94501 $994,968 1,936 sq. ft. $514
2016-11-01 Condo Contemporary 492 Diller St Alameda, CA 94501 $977,899 1,936 sq. ft. $505